Portada
METAR-TAF:

METAR-TAF

Aeroports :

Hassi R'Mel, Algèria

latitud: 32-55-48N, longitud: 003-18-44E, altitud: 774 m

Observació

L'informe es va fer fa 51 minuts, a les 18:00 UTC
Vent 6 kt del Sud
Temperatura 36°C
Humitat 15%
Pressió 1018 hPa
Visibilitat 10 km o més
sense núvols per sota de 1500 mi sense presència de cumulonimbus.

METAR: DAFH 141800Z 18006KT CAVOK 36/05 Q1018

Hora: 19:51 (18:51 UTC)

Pronòstic

L'informe es va fer fa 1 hora i 51 minuts, a les 17:00 UTC
Pronòstic vàlid del 14 a les 18 UTC al 15 a les 03 UTC
Vent 12 kt del Sud
Visibilitat 10 km o més
Escasses núvols a una alçada de 4000 ft
Núvols disperses a una alçada de 10000 ft

TAF: DAFH 141700Z 1418/1503 18012KT 9999 FEW040 SCT100

Observacions i pronòstics meteorològics de més de 4000 aeroports (METAR i TAF).

Les estacions disponibles són els punts grocs i vermells al mapa.

Posi el ratolí al punt desitjat per veure el nom de l'estació.

Feu clic per veure les observacions i els pronòstics meteorològics.

Per canviar el mapa: feu clic els botons verds amb una creu de color negre per apropar; al botó verd amb un guió per allunyar la imatge; o en les fletxes verdes per a mapes adjacents.


METAR-TAF: